Crew | Aerofun Virtual



 METAR AND TAF INFORMATION
METAR FOR GMAD
ADDS - METARS form results

(1937 UTC 21 July 2019)
Data provider http://aviationweather.gov/metar/data/
 
METAR text: GMAD 211930Z 22012KT CAVOK 21/18 Q1015 NOSIG
Conditions at: GMAD (AL MASSIRA MC , MA) observed 1930 UTC 21 July 2019
Temperature: 21.0°C (70°F)
Dewpoint: 18.0°C (64°F) [RH = 83%]
Pressure (altimeter): 29.97 inches Hg (1015.0 mb)
Winds: from the SW (220 degrees) at 14 MPH (12 knots; 6.2 m/s)
Visibility: 6 or more miles (10+ km)
Ceiling: ceiling and visibility are OK
Clouds: unknown
Weather: no significant weather observed at this time

METAR text: GMAD 211900Z 21013KT CAVOK 22/18 Q1015 NOSIG
Conditions at: GMAD (AL MASSIRA MC , MA) observed 1900 UTC 21 July 2019
Temperature: 22.0°C (72°F)
Dewpoint: 18.0°C (64°F) [RH = 78%]
Pressure (altimeter): 29.97 inches Hg (1015.0 mb)
Winds: from the SSW (210 degrees) at 15 MPH (13 knots; 6.7 m/s)
Visibility: 6 or more miles (10+ km)
Ceiling: ceiling and visibility are OK
Clouds: unknown
Weather: no significant weather observed at this time

Forecast for: GMAD (AL MASSIRA MC , MA)
Text: TAF GMAD 211700Z 2118/2224 20008KT 9999 SCT016
Forecast period: 1800 UTC 21 July 2019 to 0000 UTC 23 July 2019
Forecast type: FROM: standard forecast or significant change
Winds: from the SSW (200 degrees) at 9 MPH (8 knots; 4.1 m/s)
Visibility: 6 or more miles 10+ km)
Ceiling: at least 12,000 feet AGL
Clouds: scattered clouds at 1600 feet AGL
Weather: no significant weather forecast for this period
Text: TEMPO 2200/2208 BKN013
Forecast period: 0000 to 0800 UTC 22 July 2019
Forecast type: TEMPORARY: The following changes expected for less than half the time period
Visibility: missing
Ceiling: 1300 feet AGL
Clouds: broken clouds at 1300 feet AGL
Weather: no significant weather forecast for this period

 AIRPORT MAP

 RUNWAY INFORMATION
Runway 10 Runway length 10499 ft Runway width 148 ft
Runway elevation 198 ft Runway displaced threshold 0 ft Runway heading 92
Runway 28 Runway length 10499 ft Runway width 148 ft
Runway elevation 254 ft Runway displaced threshold 0 ft Runway heading 272

 AIRPORT FREQUENCIES
Type APP Name AGADIR APP Frequency 120.9 MHZ
Type TWR Name AGADIR TWR Frequency 119.5 MHZ

 AIRPORT NEAR NAVIGATION AIDS
Type VOR-DME Name Agadir Frequency 117200 KHZ
Type NDB Name Agadir Frequency 396 KHZ
Type NDB Name Agadir Frequency 402 KHZ